sensor_id;sensor_type;location;lat;lon;timestamp;pressure;altitude;pressure_sealevel;temperature
65765;BMP180;52915;53.718;19.946;2023-06-26T00:03:46;100492.00;;;17.00
65765;BMP180;52915;53.718;19.946;2023-06-26T00:08:54;100488.20;;;17.00
65765;BMP180;52915;53.718;19.946;2023-06-26T00:13:59;100483.40;;;16.80
65765;BMP180;52915;53.718;19.946;2023-06-26T00:19:06;100485.00;;;16.70
65765;BMP180;52915;53.718;19.946;2023-06-26T00:24:10;100480.00;;;16.50
65765;BMP180;52915;53.718;19.946;2023-06-26T00:29:15;100477.60;;;16.50
65765;BMP180;52915;53.718;19.946;2023-06-26T00:34:19;100482.20;;;16.60
65765;BMP180;52915;53.718;19.946;2023-06-26T00:39:24;100480.20;;;16.60
65765;BMP180;52915;53.718;19.946;2023-06-26T00:44:29;100476.20;;;16.40
65765;BMP180;52915;53.718;19.946;2023-06-26T00:49:34;100476.80;;;16.24
65765;BMP180;52915;53.718;19.946;2023-06-26T00:54:39;100477.20;;;16.20
65765;BMP180;52915;53.718;19.946;2023-06-26T00:59:43;100472.20;;;16.20
65765;BMP180;52915;53.718;19.946;2023-06-26T01:04:52;100466.20;;;16.14
65765;BMP180;52915;53.718;19.946;2023-06-26T01:09:56;100459.80;;;15.98
65765;BMP180;52915;53.718;19.946;2023-06-26T01:15:01;100462.20;;;15.80
65765;BMP180;52915;53.718;19.946;2023-06-26T01:20:06;100455.60;;;15.80
65765;BMP180;52915;53.718;19.946;2023-06-26T01:30:25;100448.20;;;15.90
65765;BMP180;52915;53.718;19.946;2023-06-26T01:35:30;100442.40;;;15.70
65765;BMP180;52915;53.718;19.946;2023-06-26T01:40:35;100433.00;;;15.50
65765;BMP180;52915;53.718;19.946;2023-06-26T01:45:40;100427.80;;;15.50
65765;BMP180;52915;53.718;19.946;2023-06-26T01:50:46;100433.60;;;15.60
65765;BMP180;52915;53.718;19.946;2023-06-26T01:56:13;100427.60;;;15.60
65765;BMP180;52915;53.718;19.946;2023-06-26T02:01:18;100419.80;;;15.50
65765;BMP180;52915;53.718;19.946;2023-06-26T02:06:22;100421.80;;;15.34
65765;BMP180;52915;53.718;19.946;2023-06-26T02:11:26;100420.40;;;15.40
65765;BMP180;52915;53.718;19.946;2023-06-26T02:16:31;100412.60;;;15.50
65765;BMP180;52915;53.718;19.946;2023-06-26T02:21:35;100413.40;;;15.50
65765;BMP180;52915;53.718;19.946;2023-06-26T02:26:39;100413.00;;;15.34
65765;BMP180;52915;53.718;19.946;2023-06-26T02:31:44;100417.00;;;15.20
65765;BMP180;52915;53.718;19.946;2023-06-26T02:36:48;100412.60;;;15.30
65765;BMP180;52915;53.718;19.946;2023-06-26T02:41:52;100408.60;;;15.40
65765;BMP180;52915;53.718;19.946;2023-06-26T02:46:57;100406.20;;;15.50
65765;BMP180;52915;53.718;19.946;2023-06-26T02:52:01;100406.00;;;15.40
65765;BMP180;52915;53.718;19.946;2023-06-26T02:57:06;100407.80;;;15.30
65765;BMP180;52915;53.718;19.946;2023-06-26T03:02:11;100405.40;;;15.40
65765;BMP180;52915;53.718;19.946;2023-06-26T03:07:15;100409.80;;;15.66
65765;BMP180;52915;53.718;19.946;2023-06-26T03:12:19;100410.00;;;15.72
65765;BMP180;52915;53.718;19.946;2023-06-26T03:17:24;100407.40;;;15.70
65765;BMP180;52915;53.718;19.946;2023-06-26T03:22:28;100406.40;;;15.70
65765;BMP180;52915;53.718;19.946;2023-06-26T03:27:32;100406.00;;;15.80
65765;BMP180;52915;53.718;19.946;2023-06-26T03:32:37;100412.40;;;16.00
65765;BMP180;52915;53.718;19.946;2023-06-26T03:37:41;100400.60;;;16.10
65765;BMP180;52915;53.718;19.946;2023-06-26T03:42:45;100390.80;;;16.10
65765;BMP180;52915;53.718;19.946;2023-06-26T03:47:49;100391.80;;;16.20
65765;BMP180;52915;53.718;19.946;2023-06-26T03:52:54;100400.00;;;16.50
65765;BMP180;52915;53.718;19.946;2023-06-26T03:57:58;100395.00;;;16.82
65765;BMP180;52915;53.718;19.946;2023-06-26T04:03:02;100392.80;;;17.00
65765;BMP180;52915;53.718;19.946;2023-06-26T04:08:08;100391.60;;;17.10
65765;BMP180;52915;53.718;19.946;2023-06-26T04:13:13;100392.80;;;17.22
65765;BMP180;52915;53.718;19.946;2023-06-26T04:18:18;100389.20;;;17.50
65765;BMP180;52915;53.718;19.946;2023-06-26T04:23:24;100397.20;;;17.66
65765;BMP180;52915;53.718;19.946;2023-06-26T04:28:29;100392.80;;;17.70
65765;BMP180;52915;53.718;19.946;2023-06-26T04:33:33;100391.40;;;17.84
65765;BMP180;52915;53.718;19.946;2023-06-26T04:38:41;100389.40;;;18.10
65765;BMP180;52915;53.718;19.946;2023-06-26T04:43:46;100386.00;;;18.50
65765;BMP180;52915;53.718;19.946;2023-06-26T04:48:50;100390.20;;;18.80
65765;BMP180;52915;53.718;19.946;2023-06-26T04:53:55;100382.80;;;19.00
65765;BMP180;52915;53.718;19.946;2023-06-26T04:59:08;100389.00;;;19.14
65765;BMP180;52915;53.718;19.946;2023-06-26T05:04:19;100390.40;;;19.32
65765;BMP180;52915;53.718;19.946;2023-06-26T05:09:24;100389.40;;;19.70
65765;BMP180;52915;53.718;19.946;2023-06-26T05:14:28;100390.00;;;20.00
65765;BMP180;52915;53.718;19.946;2023-06-26T05:19:32;100387.20;;;20.10
65765;BMP180;52915;53.718;19.946;2023-06-26T05:24:38;100385.00;;;20.20
65765;BMP180;52915;53.718;19.946;2023-06-26T05:29:43;100381.80;;;20.60
65765;BMP180;52915;53.718;19.946;2023-06-26T05:34:49;100371.60;;;20.80
65765;BMP180;52915;53.718;19.946;2023-06-26T05:39:54;100366.40;;;21.10
65765;BMP180;52915;53.718;19.946;2023-06-26T05:44:58;100363.60;;;21.26
65765;BMP180;52915;53.718;19.946;2023-06-26T05:50:05;100363.20;;;21.60
65765;BMP180;52915;53.718;19.946;2023-06-26T05:55:11;100356.20;;;21.96
65765;BMP180;52915;53.718;19.946;2023-06-26T06:00:16;100358.40;;;22.10
65765;BMP180;52915;53.718;19.946;2023-06-26T06:05:22;100353.00;;;22.30
65765;BMP180;52915;53.718;19.946;2023-06-26T06:10:26;100350.40;;;22.60
65765;BMP180;52915;53.718;19.946;2023-06-26T06:15:30;100352.00;;;23.04
65765;BMP180;52915;53.718;19.946;2023-06-26T06:20:35;100352.40;;;23.30
65765;BMP180;52915;53.718;19.946;2023-06-26T06:25:40;100351.40;;;23.50
65765;BMP180;52915;53.718;19.946;2023-06-26T06:30:44;100352.40;;;23.50
65765;BMP180;52915;53.718;19.946;2023-06-26T06:35:51;100356.80;;;23.60
65765;BMP180;52915;53.718;19.946;2023-06-26T06:40:56;100350.80;;;23.66
65765;BMP180;52915;53.718;19.946;2023-06-26T06:46:00;100349.20;;;23.80
65765;BMP180;52915;53.718;19.946;2023-06-26T06:51:05;100346.00;;;23.90
65765;BMP180;52915;53.718;19.946;2023-06-26T06:56:12;100343.40;;;23.90
65765;BMP180;52915;53.718;19.946;2023-06-26T07:01:16;100345.20;;;24.10
65765;BMP180;52915;53.718;19.946;2023-06-26T07:06:20;100340.40;;;24.30
65765;BMP180;52915;53.718;19.946;2023-06-26T07:11:25;100342.00;;;24.60
65765;BMP180;52915;53.718;19.946;2023-06-26T07:16:29;100338.00;;;24.90
65765;BMP180;52915;53.718;19.946;2023-06-26T07:21:34;100336.20;;;25.00
65765;BMP180;52915;53.718;19.946;2023-06-26T07:26:38;100340.00;;;25.20
65765;BMP180;52915;53.718;19.946;2023-06-26T07:31:49;100339.40;;;25.50
65765;BMP180;52915;53.718;19.946;2023-06-26T07:36:54;100339.80;;;25.90
65765;BMP180;52915;53.718;19.946;2023-06-26T07:41:58;100338.80;;;26.20
65765;BMP180;52915;53.718;19.946;2023-06-26T07:47:05;100336.60;;;26.50
65765;BMP180;52915;53.718;19.946;2023-06-26T07:52:11;100336.00;;;26.70
65765;BMP180;52915;53.718;19.946;2023-06-26T07:57:15;100331.80;;;26.78
65765;BMP180;52915;53.718;19.946;2023-06-26T08:02:20;100328.00;;;27.00
65765;BMP180;52915;53.718;19.946;2023-06-26T08:07:24;100328.00;;;27.10
65765;BMP180;52915;53.718;19.946;2023-06-26T08:12:29;100330.80;;;27.10
65765;BMP180;52915;53.718;19.946;2023-06-26T08:17:35;100324.60;;;27.40
65765;BMP180;52915;53.718;19.946;2023-06-26T08:22:41;100327.80;;;27.90
65765;BMP180;52915;53.718;19.946;2023-06-26T08:27:46;100322.40;;;28.10
65765;BMP180;52915;53.718;19.946;2023-06-26T08:32:50;100325.60;;;28.40
65765;BMP180;52915;53.718;19.946;2023-06-26T08:37:55;100322.80;;;28.80
65765;BMP180;52915;53.718;19.946;2023-06-26T08:43:00;100320.40;;;28.90
65765;BMP180;52915;53.718;19.946;2023-06-26T08:48:08;100313.60;;;29.06
65765;BMP180;52915;53.718;19.946;2023-06-26T08:53:49;100311.40;;;29.30
65765;BMP180;52915;53.718;19.946;2023-06-26T08:58:55;100311.00;;;29.48
65765;BMP180;52915;53.718;19.946;2023-06-26T09:03:59;100312.80;;;29.66
65765;BMP180;52915;53.718;19.946;2023-06-26T09:09:04;100307.40;;;29.70
65765;BMP180;52915;53.718;19.946;2023-06-26T09:14:08;100305.40;;;29.80
65765;BMP180;52915;53.718;19.946;2023-06-26T09:19:14;100303.20;;;30.10
65765;BMP180;52915;53.718;19.946;2023-06-26T09:24:25;100307.20;;;30.40
65765;BMP180;52915;53.718;19.946;2023-06-26T09:29:31;100301.40;;;30.70
65765;BMP180;52915;53.718;19.946;2023-06-26T09:34:42;100299.80;;;30.80
65765;BMP180;52915;53.718;19.946;2023-06-26T09:39:54;100291.80;;;30.60
65765;BMP180;52915;53.718;19.946;2023-06-26T09:45:07;100297.60;;;30.90
65765;BMP180;52915;53.718;19.946;2023-06-26T09:50:23;100288.60;;;30.82
65765;BMP180;52915;53.718;19.946;2023-06-26T09:55:28;100290.40;;;30.70
65765;BMP180;52915;53.718;19.946;2023-06-26T10:00:33;100280.80;;;30.50
65765;BMP180;52915;53.718;19.946;2023-06-26T10:05:40;100280.80;;;30.40
65765;BMP180;52915;53.718;19.946;2023-06-26T10:10:48;100278.20;;;30.60
65765;BMP180;52915;53.718;19.946;2023-06-26T10:16:08;100272.60;;;30.60
65765;BMP180;52915;53.718;19.946;2023-06-26T10:21:15;100265.60;;;30.50
65765;BMP180;52915;53.718;19.946;2023-06-26T10:26:21;100264.80;;;30.30
65765;BMP180;52915;53.718;19.946;2023-06-26T10:31:28;100266.00;;;30.40
65765;BMP180;52915;53.718;19.946;2023-06-26T10:36:35;100255.00;;;30.92
65765;BMP180;52915;53.718;19.946;2023-06-26T10:41:41;100257.20;;;31.60
65765;BMP180;52915;53.718;19.946;2023-06-26T10:47:06;100256.80;;;31.54
65765;BMP180;52915;53.718;19.946;2023-06-26T10:52:10;100246.00;;;31.40
65765;BMP180;52915;53.718;19.946;2023-06-26T10:57:23;100243.80;;;31.30
65765;BMP180;52915;53.718;19.946;2023-06-26T11:02:50;100230.60;;;31.10
65765;BMP180;52915;53.718;19.946;2023-06-26T11:08:09;100241.40;;;31.36
65765;BMP180;52915;53.718;19.946;2023-06-26T11:13:17;100241.00;;;32.00
65765;BMP180;52915;53.718;19.946;2023-06-26T11:18:24;100239.00;;;32.42
65765;BMP180;52915;53.718;19.946;2023-06-26T11:23:32;100232.40;;;32.70
65765;BMP180;52915;53.718;19.946;2023-06-26T11:28:37;100229.40;;;32.60
65765;BMP180;52915;53.718;19.946;2023-06-26T11:33:46;100224.40;;;32.70
65765;BMP180;52915;53.718;19.946;2023-06-26T11:39:01;100224.00;;;32.70
65765;BMP180;52915;53.718;19.946;2023-06-26T11:44:09;100216.00;;;32.40
65765;BMP180;52915;53.718;19.946;2023-06-26T11:49:16;100215.00;;;32.30
65765;BMP180;52915;53.718;19.946;2023-06-26T11:54:27;100212.60;;;32.20
65765;BMP180;52915;53.718;19.946;2023-06-26T11:59:38;100212.40;;;32.30
65765;BMP180;52915;53.718;19.946;2023-06-26T12:04:47;100208.80;;;32.20
65765;BMP180;52915;53.718;19.946;2023-06-26T12:09:53;100202.20;;;32.00
65765;BMP180;52915;53.718;19.946;2023-06-26T12:15:00;100197.40;;;32.10
65765;BMP180;52915;53.718;19.946;2023-06-26T12:20:23;100197.00;;;32.20
65765;BMP180;52915;53.718;19.946;2023-06-26T12:25:32;100188.00;;;32.40
65765;BMP180;52915;53.718;19.946;2023-06-26T12:30:37;100191.80;;;32.50
65765;BMP180;52915;53.718;19.946;2023-06-26T12:35:42;100178.20;;;32.16
65765;BMP180;52915;53.718;19.946;2023-06-26T12:40:47;100175.00;;;32.30
65765;BMP180;52915;53.718;19.946;2023-06-26T12:45:56;100176.40;;;32.60
65765;BMP180;52915;53.718;19.946;2023-06-26T12:51:09;100183.20;;;32.04
65765;BMP180;52915;53.718;19.946;2023-06-26T12:56:14;100170.60;;;32.08
65765;BMP180;52915;53.718;19.946;2023-06-26T13:01:20;100172.20;;;32.00
65765;BMP180;52915;53.718;19.946;2023-06-26T13:06:24;100181.00;;;32.30
65765;BMP180;52915;53.718;19.946;2023-06-26T13:11:33;100161.60;;;32.40
65765;BMP180;52915;53.718;19.946;2023-06-26T13:16:40;100154.80;;;32.80
65765;BMP180;52915;53.718;19.946;2023-06-26T13:21:45;100146.20;;;33.10
65765;BMP180;52915;53.718;19.946;2023-06-26T13:26:49;100144.60;;;32.80
65765;BMP180;52915;53.718;19.946;2023-06-26T13:31:54;100132.00;;;32.50
65765;BMP180;52915;53.718;19.946;2023-06-26T13:36:58;100133.80;;;32.38
65765;BMP180;52915;53.718;19.946;2023-06-26T13:42:04;100130.20;;;32.72
65765;BMP180;52915;53.718;19.946;2023-06-26T13:47:13;100128.60;;;32.60
65765;BMP180;52915;53.718;19.946;2023-06-26T13:52:19;100122.80;;;32.70
65765;BMP180;52915;53.718;19.946;2023-06-26T13:57:24;100133.00;;;32.50
65765;BMP180;52915;53.718;19.946;2023-06-26T14:02:31;100131.00;;;32.18
65765;BMP180;52915;53.718;19.946;2023-06-26T14:07:36;100130.60;;;31.48
65765;BMP180;52915;53.718;19.946;2023-06-26T14:12:42;100126.00;;;31.00
65765;BMP180;52915;53.718;19.946;2023-06-26T14:17:47;100099.40;;;30.90
65765;BMP180;52915;53.718;19.946;2023-06-26T14:22:52;100095.20;;;31.20
65765;BMP180;52915;53.718;19.946;2023-06-26T14:27:58;100086.60;;;31.50
65765;BMP180;52915;53.718;19.946;2023-06-26T14:33:02;100081.60;;;31.82
65765;BMP180;52915;53.718;19.946;2023-06-26T14:38:06;100070.00;;;32.20
65765;BMP180;52915;53.718;19.946;2023-06-26T14:48:30;100047.20;;;32.36
65765;BMP180;52915;53.718;19.946;2023-06-26T14:53:34;100038.00;;;32.40
65765;BMP180;52915;53.718;19.946;2023-06-26T14:58:39;100051.80;;;32.58
65765;BMP180;52915;53.718;19.946;2023-06-26T15:03:43;100038.80;;;32.40
65765;BMP180;52915;53.718;19.946;2023-06-26T15:08:49;100037.20;;;32.40
65765;BMP180;52915;53.718;19.946;2023-06-26T15:13:59;100035.80;;;32.30
65765;BMP180;52915;53.718;19.946;2023-06-26T15:22:43;100033.60;;;32.56
65765;BMP180;52915;53.718;19.946;2023-06-26T15:27:47;100031.60;;;32.70
65765;BMP180;52915;53.718;19.946;2023-06-26T15:32:53;100026.20;;;34.30
65765;BMP180;52915;53.718;19.946;2023-06-26T15:37:58;100028.60;;;36.02
65765;BMP180;52915;53.718;19.946;2023-06-26T15:43:03;100018.00;;;37.02
65765;BMP180;52915;53.718;19.946;2023-06-26T15:48:08;100020.40;;;37.92
65765;BMP180;52915;53.718;19.946;2023-06-26T15:53:16;100010.20;;;38.56
65765;BMP180;52915;53.718;19.946;2023-06-26T15:58:21;100007.40;;;39.12
65765;BMP180;52915;53.718;19.946;2023-06-26T16:03:26;100005.00;;;39.40
65765;BMP180;52915;53.718;19.946;2023-06-26T16:08:31;100004.40;;;39.46
65765;BMP180;52915;53.718;19.946;2023-06-26T16:13:36;100001.60;;;39.40
65765;BMP180;52915;53.718;19.946;2023-06-26T16:18:40;100002.40;;;39.40
65765;BMP180;52915;53.718;19.946;2023-06-26T16:23:44;100006.20;;;39.38
65765;BMP180;52915;53.718;19.946;2023-06-26T16:28:48;99997.80;;;39.04
65765;BMP180;52915;53.718;19.946;2023-06-26T16:33:54;100005.20;;;38.70
65765;BMP180;52915;53.718;19.946;2023-06-26T16:38:58;100001.00;;;38.20
65765;BMP180;52915;53.718;19.946;2023-06-26T16:44:05;99996.40;;;38.10
65765;BMP180;52915;53.718;19.946;2023-06-26T16:49:09;99995.60;;;37.80
65765;BMP180;52915;53.718;19.946;2023-06-26T16:54:13;99997.00;;;37.52
65765;BMP180;52915;53.718;19.946;2023-06-26T16:59:18;100002.40;;;37.30
65765;BMP180;52915;53.718;19.946;2023-06-26T17:04:23;99999.40;;;36.90
65765;BMP180;52915;53.718;19.946;2023-06-26T17:09:27;100003.80;;;35.60
65765;BMP180;52915;53.718;19.946;2023-06-26T17:14:32;100001.20;;;33.84
65765;BMP180;52915;53.718;19.946;2023-06-26T17:19:36;99997.20;;;32.46
65765;BMP180;52915;53.718;19.946;2023-06-26T17:24:41;100001.00;;;31.50
65765;BMP180;52915;53.718;19.946;2023-06-26T17:29:46;100007.20;;;30.74
65765;BMP180;52915;53.718;19.946;2023-06-26T17:34:50;99997.20;;;29.92
65765;BMP180;52915;53.718;19.946;2023-06-26T17:39:55;99995.80;;;29.26
65765;BMP180;52915;53.718;19.946;2023-06-26T17:44:59;99994.80;;;28.62
65765;BMP180;52915;53.718;19.946;2023-06-26T17:50:05;99994.40;;;28.10
65765;BMP180;52915;53.718;19.946;2023-06-26T17:55:10;99993.80;;;27.60
65765;BMP180;52915;53.718;19.946;2023-06-26T18:00:15;99990.40;;;27.14
65765;BMP180;52915;53.718;19.946;2023-06-26T18:05:22;99983.20;;;26.76
65765;BMP180;52915;53.718;19.946;2023-06-26T18:10:27;99987.60;;;26.40
65765;BMP180;52915;53.718;19.946;2023-06-26T18:15:32;99987.00;;;26.10
65765;BMP180;52915;53.718;19.946;2023-06-26T18:20:36;99982.80;;;25.80
65765;BMP180;52915;53.718;19.946;2023-06-26T18:25:42;99984.00;;;25.52
65765;BMP180;52915;53.718;19.946;2023-06-26T18:30:46;99981.60;;;25.30
65765;BMP180;52915;53.718;19.946;2023-06-26T18:35:51;99986.00;;;25.10
65765;BMP180;52915;53.718;19.946;2023-06-26T18:40:55;99978.60;;;24.90
65765;BMP180;52915;53.718;19.946;2023-06-26T18:46:00;99976.40;;;24.60
65765;BMP180;52915;53.718;19.946;2023-06-26T18:51:04;99971.20;;;24.34
65765;BMP180;52915;53.718;19.946;2023-06-26T18:56:09;99971.80;;;24.10
65765;BMP180;52915;53.718;19.946;2023-06-26T19:01:13;99969.00;;;24.00
65765;BMP180;52915;53.718;19.946;2023-06-26T19:06:18;99970.00;;;23.80
65765;BMP180;52915;53.718;19.946;2023-06-26T19:11:23;99966.40;;;23.60
65765;BMP180;52915;53.718;19.946;2023-06-26T19:16:27;99964.60;;;23.40
65765;BMP180;52915;53.718;19.946;2023-06-26T19:21:32;99962.60;;;23.20
65765;BMP180;52915;53.718;19.946;2023-06-26T19:26:36;99957.20;;;23.00
65765;BMP180;52915;53.718;19.946;2023-06-26T19:31:41;99951.80;;;22.80
65765;BMP180;52915;53.718;19.946;2023-06-26T19:36:45;99947.80;;;22.70
65765;BMP180;52915;53.718;19.946;2023-06-26T19:41:49;99938.40;;;22.60
65765;BMP180;52915;53.718;19.946;2023-06-26T19:46:57;99931.40;;;22.50
65765;BMP180;52915;53.718;19.946;2023-06-26T19:52:02;99926.80;;;22.34
65765;BMP180;52915;53.718;19.946;2023-06-26T19:57:07;99921.40;;;22.20
65765;BMP180;52915;53.718;19.946;2023-06-26T20:02:15;99918.40;;;22.10
65765;BMP180;52915;53.718;19.946;2023-06-26T20:11:59;99902.80;;;21.80
65765;BMP180;52915;53.718;19.946;2023-06-26T20:17:11;99897.80;;;21.80
65765;BMP180;52915;53.718;19.946;2023-06-26T20:22:15;99896.00;;;21.70
65765;BMP180;52915;53.718;19.946;2023-06-26T20:27:20;99888.20;;;21.60
65765;BMP180;52915;53.718;19.946;2023-06-26T20:32:25;99888.20;;;21.50
65765;BMP180;52915;53.718;19.946;2023-06-26T20:37:31;99882.40;;;21.42
65765;BMP180;52915;53.718;19.946;2023-06-26T20:42:37;99886.00;;;21.40
65765;BMP180;52915;53.718;19.946;2023-06-26T20:47:44;99890.40;;;21.30
65765;BMP180;52915;53.718;19.946;2023-06-26T20:52:51;99890.80;;;21.26
65765;BMP180;52915;53.718;19.946;2023-06-26T20:57:56;99878.80;;;21.20
65765;BMP180;52915;53.718;19.946;2023-06-26T21:03:00;99873.60;;;21.10
65765;BMP180;52915;53.718;19.946;2023-06-26T21:08:08;99870.00;;;21.00
65765;BMP180;52915;53.718;19.946;2023-06-26T21:13:12;99860.60;;;20.88
65765;BMP180;52915;53.718;19.946;2023-06-26T21:18:17;99851.40;;;20.80
65765;BMP180;52915;53.718;19.946;2023-06-26T21:23:24;99843.60;;;20.70
65765;BMP180;52915;53.718;19.946;2023-06-26T21:28:28;99837.40;;;20.60
65765;BMP180;52915;53.718;19.946;2023-06-26T21:33:33;99835.20;;;20.50
65765;BMP180;52915;53.718;19.946;2023-06-26T21:38:36;99840.80;;;20.40
65765;BMP180;52915;53.718;19.946;2023-06-26T21:43:42;99841.00;;;20.30
65765;BMP180;52915;53.718;19.946;2023-06-26T21:48:47;99841.60;;;20.22
65765;BMP180;52915;53.718;19.946;2023-06-26T21:53:52;99837.60;;;20.10
65765;BMP180;52915;53.718;19.946;2023-06-26T21:58:56;99836.60;;;20.02
65765;BMP180;52915;53.718;19.946;2023-06-26T22:04:00;99834.80;;;20.00
65765;BMP180;52915;53.718;19.946;2023-06-26T22:09:05;99831.60;;;19.94
65765;BMP180;52915;53.718;19.946;2023-06-26T22:14:15;99826.20;;;19.90
65765;BMP180;52915;53.718;19.946;2023-06-26T22:19:37;99829.00;;;19.80
65765;BMP180;52915;53.718;19.946;2023-06-26T22:30:48;99811.40;;;19.72
65765;BMP180;52915;53.718;19.946;2023-06-26T22:36:00;99807.60;;;19.70
65765;BMP180;52915;53.718;19.946;2023-06-26T22:41:04;99807.60;;;19.70
65765;BMP180;52915;53.718;19.946;2023-06-26T22:46:09;99805.00;;;19.60
65765;BMP180;52915;53.718;19.946;2023-06-26T22:51:13;99802.80;;;19.60
65765;BMP180;52915;53.718;19.946;2023-06-26T22:56:18;99795.20;;;19.50
65765;BMP180;52915;53.718;19.946;2023-06-26T23:01:22;99790.00;;;19.40
65765;BMP180;52915;53.718;19.946;2023-06-26T23:06:27;99786.40;;;19.30
65765;BMP180;52915;53.718;19.946;2023-06-26T23:11:31;99776.40;;;19.30
65765;BMP180;52915;53.718;19.946;2023-06-26T23:16:35;99779.60;;;19.20
65765;BMP180;52915;53.718;19.946;2023-06-26T23:21:41;99778.40;;;19.20
65765;BMP180;52915;53.718;19.946;2023-06-26T23:26:45;99773.80;;;19.10
65765;BMP180;52915;53.718;19.946;2023-06-26T23:31:49;99761.60;;;19.08
65765;BMP180;52915;53.718;19.946;2023-06-26T23:36:54;99759.00;;;19.00
65765;BMP180;52915;53.718;19.946;2023-06-26T23:41:58;99756.80;;;19.00
65765;BMP180;52915;53.718;19.946;2023-06-26T23:47:04;99804.40;;;19.00
65765;BMP180;52915;53.718;19.946;2023-06-26T23:52:08;99851.20;;;19.00
65765;BMP180;52915;53.718;19.946;2023-06-26T23:57:12;99811.00;;;19.30
